Startpagina
METAR-TAF:

METAR-TAF

Vliegvelden :

Athene, Griekenland

Luchthaven Athene

breedte: 37-56N, lengte: 023-56E, hoogte: 94 m

Actueel weer

Dit bericht is 41 minuten geleden gemaakt, om 11:50 UTC
Wind 21 kt uit het noordnoordoosten
Temperatuur 14°C
Vochtigheid 63%
Druk 1020 hPa
Zicht 10 km of meer
Verspreide wolken op 2500 ft

METAR: LGAV 271150Z 03021KT 9999 SCT025 14/07 Q1020 NOSIG

Tijdstip: 15:31 (12:31 UTC)

Verwachting

Dit bericht is 1 uur en het 31 minuten geleden gemaakt, om 11:00 UTC
Verwachting geldig van 27 om 12 UTC tot 28 om 12 UTC
Wind 25 kt uit het noordnoordoosten met uitschieters tot 35 kt
Zicht 10 km of meer
Verspreide wolken op 2000 ft
Wijzigt naar
van 27 om 16 UTC tot 27 om 18 UTC
Wind 20 kt uit het noordnoordoosten met uitschieters tot 30 kt

TAF: LGAV 271100Z 2712/2812 03025G35KT 9999 SCT020 BECMG 2716/2718 03020G30KT

Waarnemingen en weersverwachtingen van meer dan 4000 vliegvelden (METAR en TAF).

De beschikbare stations zijn de gele en rode punten op de kaart.

Ga met uw muis naar het station om de naam te zien.

Klik dan om waarnemingen en weersverwachtingen te zien.

kaart wijzigen: klik op de groene knoppen met een zwart kruis om in te zoomen, op de groene knop met een streepje om uit te zoomen of op de groene pijlen voor aangrenzende kaarten.


METAR-TAF: